sensor_id;sensor_type;location;lat;lon;timestamp;pressure;altitude;pressure_sealevel;temperature;humidity
54459;BME280;40368;49.350;8.152;2023-03-14T00:00:39;984;;;13.58;64.66
54459;BME280;40368;49.350;8.152;2023-03-14T00:01:39;984;;;13.59;64.45
54459;BME280;40368;49.350;8.152;2023-03-14T00:02:39;984;;;13.61;64.45
54459;BME280;40368;49.350;8.152;2023-03-14T00:03:39;984;;;13.63;64.59
54459;BME280;40368;49.350;8.152;2023-03-14T00:04:39;984.1;;;13.64;64.47
54459;BME280;40368;49.350;8.152;2023-03-14T00:05:39;983.9;;;13.63;64.48
54459;BME280;40368;49.350;8.152;2023-03-14T00:06:39;983.9;;;13.58;64.3
54459;BME280;40368;49.350;8.152;2023-03-14T00:07:39;984;;;13.58;64.59
54459;BME280;40368;49.350;8.152;2023-03-14T00:08:40;984;;;13.6;64.42
54459;BME280;40368;49.350;8.152;2023-03-14T00:09:39;983.8;;;13.58;64.16
54459;BME280;40368;49.350;8.152;2023-03-14T00:10:39;983.8;;;13.6;64.58
54459;BME280;40368;49.350;8.152;2023-03-14T00:11:39;983.7;;;13.61;64.59
54459;BME280;40368;49.350;8.152;2023-03-14T00:12:39;983.8;;;13.66;64.48
54459;BME280;40368;49.350;8.152;2023-03-14T00:13:39;983.8;;;13.64;64.34
54459;BME280;40368;49.350;8.152;2023-03-14T00:14:39;983.9;;;13.65;64.33
54459;BME280;40368;49.350;8.152;2023-03-14T00:15:39;983.8;;;13.69;64.22
54459;BME280;40368;49.350;8.152;2023-03-14T00:16:39;984;;;13.72;64.18
54459;BME280;40368;49.350;8.152;2023-03-14T00:17:39;984;;;13.71;63.57
54459;BME280;40368;49.350;8.152;2023-03-14T00:18:39;984;;;13.7;63.54
54459;BME280;40368;49.350;8.152;2023-03-14T00:19:39;984;;;13.69;63.57
54459;BME280;40368;49.350;8.152;2023-03-14T00:20:39;984.1;;;13.68;63.83
54459;BME280;40368;49.350;8.152;2023-03-14T00:21:39;984;;;13.68;63.86
54459;BME280;40368;49.350;8.152;2023-03-14T00:22:39;984;;;13.66;63.88
54459;BME280;40368;49.350;8.152;2023-03-14T00:23:40;984;;;13.67;63.86
54459;BME280;40368;49.350;8.152;2023-03-14T00:24:39;984;;;13.7;63.74
54459;BME280;40368;49.350;8.152;2023-03-14T00:25:39;984;;;13.73;63.64
54459;BME280;40368;49.350;8.152;2023-03-14T00:26:39;983.9;;;13.74;63.78
54459;BME280;40368;49.350;8.152;2023-03-14T00:27:39;983.9;;;13.72;63.65
54459;BME280;40368;49.350;8.152;2023-03-14T00:28:40;983.8;;;13.73;63.86
54459;BME280;40368;49.350;8.152;2023-03-14T00:29:39;983.9;;;13.74;63.86
54459;BME280;40368;49.350;8.152;2023-03-14T00:30:39;983.8;;;13.74;63.82
54459;BME280;40368;49.350;8.152;2023-03-14T00:31:40;983.9;;;13.75;63.86
54459;BME280;40368;49.350;8.152;2023-03-14T00:32:39;983.7;;;13.76;63.65
54459;BME280;40368;49.350;8.152;2023-03-14T00:33:39;983.7;;;13.79;63.8
54459;BME280;40368;49.350;8.152;2023-03-14T00:34:39;983.6;;;13.8;63.92
54459;BME280;40368;49.350;8.152;2023-03-14T00:35:39;983.7;;;13.81;63.85
54459;BME280;40368;49.350;8.152;2023-03-14T00:36:39;983.5;;;13.84;63.84
54459;BME280;40368;49.350;8.152;2023-03-14T00:37:39;983.5;;;13.86;63.8
54459;BME280;40368;49.350;8.152;2023-03-14T00:38:40;983.5;;;13.9;63.86
54459;BME280;40368;49.350;8.152;2023-03-14T00:39:39;983.6;;;13.92;63.84
54459;BME280;40368;49.350;8.152;2023-03-14T00:40:39;983.6;;;13.93;63.75
54459;BME280;40368;49.350;8.152;2023-03-14T00:41:39;983.6;;;13.91;63.81
54459;BME280;40368;49.350;8.152;2023-03-14T00:42:39;983.6;;;13.92;63.76
54459;BME280;40368;49.350;8.152;2023-03-14T00:43:39;983.7;;;13.95;63.75
54459;BME280;40368;49.350;8.152;2023-03-14T00:44:39;983.7;;;13.95;63.81
54459;BME280;40368;49.350;8.152;2023-03-14T00:45:39;983.7;;;13.95;63.71
54459;BME280;40368;49.350;8.152;2023-03-14T00:46:39;983.8;;;13.92;63.8
54459;BME280;40368;49.350;8.152;2023-03-14T00:47:39;983.9;;;13.85;64.08
54459;BME280;40368;49.350;8.152;2023-03-14T00:48:39;983.8;;;13.79;64.08
54459;BME280;40368;49.350;8.152;2023-03-14T00:49:39;983.9;;;13.78;64.14
54459;BME280;40368;49.350;8.152;2023-03-14T00:50:39;984;;;13.77;64.16
54459;BME280;40368;49.350;8.152;2023-03-14T00:51:39;983.9;;;13.76;64.23
54459;BME280;40368;49.350;8.152;2023-03-14T00:52:39;983.9;;;13.7;64.1
54459;BME280;40368;49.350;8.152;2023-03-14T00:53:39;983.9;;;13.68;64.3
54459;BME280;40368;49.350;8.152;2023-03-14T00:54:39;983.9;;;13.7;64.19
54459;BME280;40368;49.350;8.152;2023-03-14T00:55:39;983.9;;;13.73;64.16
54459;BME280;40368;49.350;8.152;2023-03-14T00:56:39;984;;;13.68;63.98
54459;BME280;40368;49.350;8.152;2023-03-14T00:57:39;984;;;13.62;64.08
54459;BME280;40368;49.350;8.152;2023-03-14T00:58:39;983.9;;;13.61;64.36
54459;BME280;40368;49.350;8.152;2023-03-14T00:59:39;984;;;13.61;64.46
54459;BME280;40368;49.350;8.152;2023-03-14T01:00:39;984;;;13.61;64.42
54459;BME280;40368;49.350;8.152;2023-03-14T01:01:39;984;;;13.62;64.4
54459;BME280;40368;49.350;8.152;2023-03-14T01:02:39;984;;;13.61;64.51
54459;BME280;40368;49.350;8.152;2023-03-14T01:03:39;984;;;13.6;64.42
54459;BME280;40368;49.350;8.152;2023-03-14T01:04:39;983.9;;;13.61;64.12
54459;BME280;40368;49.350;8.152;2023-03-14T01:05:39;983.9;;;13.62;64.13
54459;BME280;40368;49.350;8.152;2023-03-14T01:06:39;983.9;;;13.6;64.39
54459;BME280;40368;49.350;8.152;2023-03-14T01:07:39;983.9;;;13.62;64.34
54459;BME280;40368;49.350;8.152;2023-03-14T01:08:39;983.9;;;13.62;64.17
54459;BME280;40368;49.350;8.152;2023-03-14T01:09:40;983.9;;;13.61;64.56
54459;BME280;40368;49.350;8.152;2023-03-14T01:10:39;983.8;;;13.62;64.22
54459;BME280;40368;49.350;8.152;2023-03-14T01:11:39;983.9;;;13.63;64.44
54459;BME280;40368;49.350;8.152;2023-03-14T01:12:39;983.9;;;13.64;64.2
54459;BME280;40368;49.350;8.152;2023-03-14T01:13:39;984;;;13.62;64.24
54459;BME280;40368;49.350;8.152;2023-03-14T01:14:39;984;;;13.62;64.31
54459;BME280;40368;49.350;8.152;2023-03-14T01:15:39;984;;;13.61;64.4
54459;BME280;40368;49.350;8.152;2023-03-14T01:16:39;983.9;;;13.58;64.32
54459;BME280;40368;49.350;8.152;2023-03-14T01:17:39;984;;;13.52;64.15
54459;BME280;40368;49.350;8.152;2023-03-14T01:18:40;983.9;;;13.47;64.34
54459;BME280;40368;49.350;8.152;2023-03-14T01:19:39;983.9;;;13.45;64.55
54459;BME280;40368;49.350;8.152;2023-03-14T01:20:39;983.9;;;13.45;64.75
54459;BME280;40368;49.350;8.152;2023-03-14T01:21:39;983.8;;;13.48;64.59
54459;BME280;40368;49.350;8.152;2023-03-14T01:22:39;983.8;;;13.5;64.67
54459;BME280;40368;49.350;8.152;2023-03-14T01:23:39;983.8;;;13.51;64.74
54459;BME280;40368;49.350;8.152;2023-03-14T01:24:39;983.8;;;13.53;64.56
54459;BME280;40368;49.350;8.152;2023-03-14T01:25:40;983.8;;;13.52;64.61
54459;BME280;40368;49.350;8.152;2023-03-14T01:26:39;983.8;;;13.5;64.52
54459;BME280;40368;49.350;8.152;2023-03-14T01:27:39;983.8;;;13.49;64.73
54459;BME280;40368;49.350;8.152;2023-03-14T01:28:39;983.8;;;13.47;65.12
54459;BME280;40368;49.350;8.152;2023-03-14T01:29:39;983.8;;;13.46;65.14
54459;BME280;40368;49.350;8.152;2023-03-14T01:30:39;983.7;;;13.46;65.12
54459;BME280;40368;49.350;8.152;2023-03-14T01:31:39;983.7;;;13.45;65.07
54459;BME280;40368;49.350;8.152;2023-03-14T01:32:39;983.6;;;13.44;65.15
54459;BME280;40368;49.350;8.152;2023-03-14T01:33:39;983.6;;;13.45;65.36
54459;BME280;40368;49.350;8.152;2023-03-14T01:34:39;983.6;;;13.47;65.01
54459;BME280;40368;49.350;8.152;2023-03-14T01:35:39;983.7;;;13.49;64.73
54459;BME280;40368;49.350;8.152;2023-03-14T01:36:39;983.6;;;13.49;64.77
54459;BME280;40368;49.350;8.152;2023-03-14T01:37:39;983.6;;;13.5;64.68
54459;BME280;40368;49.350;8.152;2023-03-14T01:38:39;983.5;;;13.52;64.63
54459;BME280;40368;49.350;8.152;2023-03-14T01:39:39;983.5;;;13.55;64.4
54459;BME280;40368;49.350;8.152;2023-03-14T01:40:42;983.5;;;13.55;64.27
54459;BME280;40368;49.350;8.152;2023-03-14T01:41:39;983.5;;;13.53;64.31
54459;BME280;40368;49.350;8.152;2023-03-14T01:42:44;983.5;;;13.53;64.07
54459;BME280;40368;49.350;8.152;2023-03-14T01:43:39;983.6;;;13.5;64.09
54459;BME280;40368;49.350;8.152;2023-03-14T01:44:47;983.5;;;13.46;64.44
54459;BME280;40368;49.350;8.152;2023-03-14T01:46:14;983.5;;;13.45;64.28
54459;BME280;40368;49.350;8.152;2023-03-14T01:46:40;983.5;;;13.45;65.08
54459;BME280;40368;49.350;8.152;2023-03-14T01:47:39;983.5;;;13.45;65.86
54459;BME280;40368;49.350;8.152;2023-03-14T01:48:40;983.4;;;13.47;66.22
54459;BME280;40368;49.350;8.152;2023-03-14T01:49:39;983.4;;;13.41;65.96
54459;BME280;40368;49.350;8.152;2023-03-14T01:50:39;983.4;;;13.37;65.77
54459;BME280;40368;49.350;8.152;2023-03-14T01:51:41;983.2;;;13.34;66.01
54459;BME280;40368;49.350;8.152;2023-03-14T01:52:39;983.2;;;13.29;66.45
54459;BME280;40368;49.350;8.152;2023-03-14T01:53:39;983.2;;;13.26;65.96
54459;BME280;40368;49.350;8.152;2023-03-14T01:54:40;983.1;;;13.26;66.1
54459;BME280;40368;49.350;8.152;2023-03-14T01:55:39;983;;;13.27;65.78
54459;BME280;40368;49.350;8.152;2023-03-14T01:56:40;983.1;;;13.3;65.66
54459;BME280;40368;49.350;8.152;2023-03-14T01:57:40;983;;;13.28;65.78
54459;BME280;40368;49.350;8.152;2023-03-14T01:58:39;983;;;13.3;65.72
54459;BME280;40368;49.350;8.152;2023-03-14T01:59:39;983;;;13.31;65.84
54459;BME280;40368;49.350;8.152;2023-03-14T02:00:39;983;;;13.31;65.87
54459;BME280;40368;49.350;8.152;2023-03-14T02:01:40;983;;;13.32;65.87
54459;BME280;40368;49.350;8.152;2023-03-14T02:02:40;983;;;13.32;66.17
54459;BME280;40368;49.350;8.152;2023-03-14T02:03:43;982.9;;;13.32;66.12
54459;BME280;40368;49.350;8.152;2023-03-14T02:04:39;982.9;;;13.33;65.94
54459;BME280;40368;49.350;8.152;2023-03-14T02:05:41;982.8;;;13.31;65.6
54459;BME280;40368;49.350;8.152;2023-03-14T02:06:42;982.8;;;13.32;65.42
54459;BME280;40368;49.350;8.152;2023-03-14T02:07:39;982.8;;;13.32;65.27
54459;BME280;40368;49.350;8.152;2023-03-14T02:08:39;982.7;;;13.32;65.13
54459;BME280;40368;49.350;8.152;2023-03-14T02:09:39;982.8;;;13.31;64.73
54459;BME280;40368;49.350;8.152;2023-03-14T02:10:41;982.7;;;13.28;64.14
54459;BME280;40368;49.350;8.152;2023-03-14T02:11:39;982.8;;;13.27;64.69
54459;BME280;40368;49.350;8.152;2023-03-14T02:12:39;982.8;;;13.29;64.56
54459;BME280;40368;49.350;8.152;2023-03-14T02:13:39;982.8;;;13.31;64.32
54459;BME280;40368;49.350;8.152;2023-03-14T02:14:39;982.8;;;13.33;64.57
54459;BME280;40368;49.350;8.152;2023-03-14T02:15:39;982.7;;;13.3;64.6
54459;BME280;40368;49.350;8.152;2023-03-14T02:16:39;982.7;;;13.28;64.49
54459;BME280;40368;49.350;8.152;2023-03-14T02:17:39;982.9;;;13.23;64.2
54459;BME280;40368;49.350;8.152;2023-03-14T02:18:39;982.7;;;13.19;64.3
54459;BME280;40368;49.350;8.152;2023-03-14T02:19:44;982.7;;;13.19;64.52
54459;BME280;40368;49.350;8.152;2023-03-14T02:20:40;983;;;13.2;64.11
54459;BME280;40368;49.350;8.152;2023-03-14T02:21:42;982.7;;;13.16;63.75
54459;BME280;40368;49.350;8.152;2023-03-14T02:22:40;982.7;;;13.15;64.11
54459;BME280;40368;49.350;8.152;2023-03-14T02:23:40;982.7;;;13.12;63.73
54459;BME280;40368;49.350;8.152;2023-03-14T02:24:41;982.6;;;13.11;64.17
54459;BME280;40368;49.350;8.152;2023-03-14T02:25:41;982.7;;;13.13;63.68
54459;BME280;40368;49.350;8.152;2023-03-14T02:26:40;982.5;;;13.12;63.93
54459;BME280;40368;49.350;8.152;2023-03-14T02:27:39;982.5;;;13.15;63.66
54459;BME280;40368;49.350;8.152;2023-03-14T02:28:39;982.6;;;13.17;63.75
54459;BME280;40368;49.350;8.152;2023-03-14T02:29:41;982.5;;;13.19;63.18
54459;BME280;40368;49.350;8.152;2023-03-14T02:30:40;982.6;;;13.19;62.96
54459;BME280;40368;49.350;8.152;2023-03-14T02:31:39;982.5;;;13.21;63.36
54459;BME280;40368;49.350;8.152;2023-03-14T02:32:41;982.5;;;13.22;63.28
54459;BME280;40368;49.350;8.152;2023-03-14T02:33:39;982.4;;;13.25;63.22
54459;BME280;40368;49.350;8.152;2023-03-14T02:34:39;982.4;;;13.27;62.9
54459;BME280;40368;49.350;8.152;2023-03-14T02:35:40;982.4;;;13.27;62.35
54459;BME280;40368;49.350;8.152;2023-03-14T02:36:39;982.4;;;13.29;62.95
54459;BME280;40368;49.350;8.152;2023-03-14T02:37:41;982.4;;;13.32;62.7
54459;BME280;40368;49.350;8.152;2023-03-14T02:38:40;982.5;;;13.32;62.51
54459;BME280;40368;49.350;8.152;2023-03-14T02:39:40;982.4;;;13.35;62.47
54459;BME280;40368;49.350;8.152;2023-03-14T02:40:39;982.5;;;13.36;62.15
54459;BME280;40368;49.350;8.152;2023-03-14T02:41:39;982.3;;;13.37;62.2
54459;BME280;40368;49.350;8.152;2023-03-14T02:42:39;982.4;;;13.4;62.14
54459;BME280;40368;49.350;8.152;2023-03-14T02:43:39;982.6;;;13.42;61.83
54459;BME280;40368;49.350;8.152;2023-03-14T02:44:47;982.4;;;13.42;61.21
54459;BME280;40368;49.350;8.152;2023-03-14T02:45:40;982.5;;;13.4;61.65
54459;BME280;40368;49.350;8.152;2023-03-14T02:46:39;982.5;;;13.38;61.73
54459;BME280;40368;49.350;8.152;2023-03-14T02:47:41;982.5;;;13.36;61.11
54459;BME280;40368;49.350;8.152;2023-03-14T02:48:40;982.4;;;13.38;61.23
54459;BME280;40368;49.350;8.152;2023-03-14T02:49:39;982.5;;;13.38;60.82
54459;BME280;40368;49.350;8.152;2023-03-14T02:50:39;982.4;;;13.4;61.12
54459;BME280;40368;49.350;8.152;2023-03-14T02:51:39;982.5;;;13.39;61.16
54459;BME280;40368;49.350;8.152;2023-03-14T02:52:39;982.4;;;13.41;61.17
54459;BME280;40368;49.350;8.152;2023-03-14T02:53:39;982.4;;;13.42;61.03
54459;BME280;40368;49.350;8.152;2023-03-14T02:54:39;982.4;;;13.41;60.73
54459;BME280;40368;49.350;8.152;2023-03-14T02:55:39;982.4;;;13.4;60.92
54459;BME280;40368;49.350;8.152;2023-03-14T02:56:39;982.3;;;13.41;60.9
54459;BME280;40368;49.350;8.152;2023-03-14T02:57:40;982.2;;;13.43;60.8
54459;BME280;40368;49.350;8.152;2023-03-14T02:58:39;982.2;;;13.45;60.65
54459;BME280;40368;49.350;8.152;2023-03-14T02:59:39;982.2;;;13.45;60.62
54459;BME280;40368;49.350;8.152;2023-03-14T03:00:39;982.8;;;13.45;60.06
54459;BME280;40368;49.350;8.152;2023-03-14T03:01:39;982.3;;;13.43;60.22
54459;BME280;40368;49.350;8.152;2023-03-14T03:02:39;982.3;;;13.43;60.05
54459;BME280;40368;49.350;8.152;2023-03-14T03:03:39;982.4;;;13.42;59.93
54459;BME280;40368;49.350;8.152;2023-03-14T03:04:39;982.1;;;13.42;60.03
54459;BME280;40368;49.350;8.152;2023-03-14T03:05:39;982.2;;;13.44;60.1
54459;BME280;40368;49.350;8.152;2023-03-14T03:06:39;982.5;;;13.43;59.9
54459;BME280;40368;49.350;8.152;2023-03-14T03:07:39;982.2;;;13.42;60.04
54459;BME280;40368;49.350;8.152;2023-03-14T03:08:39;982.2;;;13.42;59.84
54459;BME280;40368;49.350;8.152;2023-03-14T03:09:39;982.2;;;13.42;59.89
54459;BME280;40368;49.350;8.152;2023-03-14T03:10:39;982.2;;;13.44;59.87
54459;BME280;40368;49.350;8.152;2023-03-14T03:11:39;982;;;13.44;59.6
54459;BME280;40368;49.350;8.152;2023-03-14T03:12:39;982.1;;;13.41;59.34
54459;BME280;40368;49.350;8.152;2023-03-14T03:13:39;982;;;13.4;59.52
54459;BME280;40368;49.350;8.152;2023-03-14T03:14:39;982;;;13.4;59.24
54459;BME280;40368;49.350;8.152;2023-03-14T03:15:39;982.1;;;13.4;59.33
54459;BME280;40368;49.350;8.152;2023-03-14T03:16:39;982;;;13.4;59.69
54459;BME280;40368;49.350;8.152;2023-03-14T03:17:39;982.1;;;13.4;59.43
54459;BME280;40368;49.350;8.152;2023-03-14T03:18:39;981.8;;;13.4;59.23
54459;BME280;40368;49.350;8.152;2023-03-14T03:19:39;981.7;;;13.42;59.44
54459;BME280;40368;49.350;8.152;2023-03-14T03:20:39;981.7;;;13.43;59.15
54459;BME280;40368;49.350;8.152;2023-03-14T03:21:39;981.6;;;13.43;59.06
54459;BME280;40368;49.350;8.152;2023-03-14T03:22:39;981.6;;;13.43;58.72
54459;BME280;40368;49.350;8.152;2023-03-14T03:23:39;981.5;;;13.43;58.84
54459;BME280;40368;49.350;8.152;2023-03-14T03:24:39;981.6;;;13.44;58.95
54459;BME280;40368;49.350;8.152;2023-03-14T03:25:39;981.6;;;13.43;58.81
54459;BME280;40368;49.350;8.152;2023-03-14T03:26:39;981.6;;;13.44;59.03
54459;BME280;40368;49.350;8.152;2023-03-14T03:27:39;981.4;;;13.45;58.7
54459;BME280;40368;49.350;8.152;2023-03-14T03:28:39;981.5;;;13.46;58.91
54459;BME280;40368;49.350;8.152;2023-03-14T03:29:39;981.6;;;13.44;58.47
54459;BME280;40368;49.350;8.152;2023-03-14T03:30:39;981.4;;;13.44;58.5
54459;BME280;40368;49.350;8.152;2023-03-14T03:31:39;981.4;;;13.44;58.76
54459;BME280;40368;49.350;8.152;2023-03-14T03:32:39;981.4;;;13.46;58.64
54459;BME280;40368;49.350;8.152;2023-03-14T03:33:39;981.3;;;13.49;59.04
54459;BME280;40368;49.350;8.152;2023-03-14T03:34:39;981.4;;;13.5;58.61
54459;BME280;40368;49.350;8.152;2023-03-14T03:35:43;981.4;;;13.48;58.41
54459;BME280;40368;49.350;8.152;2023-03-14T03:36:39;981.3;;;13.46;58.44
54459;BME280;40368;49.350;8.152;2023-03-14T03:37:39;981.3;;;13.46;58.34
54459;BME280;40368;49.350;8.152;2023-03-14T03:38:39;981.3;;;13.46;58.22
54459;BME280;40368;49.350;8.152;2023-03-14T03:39:39;981.2;;;13.43;58.38
54459;BME280;40368;49.350;8.152;2023-03-14T03:40:39;981.2;;;13.44;58.32
54459;BME280;40368;49.350;8.152;2023-03-14T03:41:39;981.3;;;13.46;58.44
54459;BME280;40368;49.350;8.152;2023-03-14T03:42:39;981.1;;;13.48;58.74
54459;BME280;40368;49.350;8.152;2023-03-14T03:43:39;981.2;;;13.47;57.92
54459;BME280;40368;49.350;8.152;2023-03-14T03:44:39;981.1;;;13.47;57.99
54459;BME280;40368;49.350;8.152;2023-03-14T03:45:39;981;;;13.48;58.26
54459;BME280;40368;49.350;8.152;2023-03-14T03:46:39;981.1;;;13.48;57.98
54459;BME280;40368;49.350;8.152;2023-03-14T03:47:39;981.1;;;13.45;57.93
54459;BME280;40368;49.350;8.152;2023-03-14T03:48:39;981.1;;;13.41;57.85
54459;BME280;40368;49.350;8.152;2023-03-14T03:49:39;981.1;;;13.39;58.22
54459;BME280;40368;49.350;8.152;2023-03-14T03:50:43;981.1;;;13.38;58.3
54459;BME280;40368;49.350;8.152;2023-03-14T03:51:39;981;;;13.39;57.84
54459;BME280;40368;49.350;8.152;2023-03-14T03:52:39;981.1;;;13.39;58.23
54459;BME280;40368;49.350;8.152;2023-03-14T03:53:39;981.1;;;13.37;58.13
54459;BME280;40368;49.350;8.152;2023-03-14T03:54:39;981.1;;;13.37;57.78
54459;BME280;40368;49.350;8.152;2023-03-14T03:55:40;981.1;;;13.39;58.22
54459;BME280;40368;49.350;8.152;2023-03-14T03:56:39;981.1;;;13.41;57.93
54459;BME280;40368;49.350;8.152;2023-03-14T03:57:39;981.2;;;13.41;57.8
54459;BME280;40368;49.350;8.152;2023-03-14T03:58:39;981.3;;;13.41;57.76
54459;BME280;40368;49.350;8.152;2023-03-14T03:59:39;981.1;;;13.37;57.58
54459;BME280;40368;49.350;8.152;2023-03-14T04:00:39;981.3;;;13.33;57.64
54459;BME280;40368;49.350;8.152;2023-03-14T04:01:39;981.5;;;13.29;57.4
54459;BME280;40368;49.350;8.152;2023-03-14T04:02:39;981.1;;;13.26;57.98
54459;BME280;40368;49.350;8.152;2023-03-14T04:03:39;981.2;;;13.26;58.24
54459;BME280;40368;49.350;8.152;2023-03-14T04:04:39;981.3;;;13.28;57.89
54459;BME280;40368;49.350;8.152;2023-03-14T04:05:39;981.2;;;13.29;57.87
54459;BME280;40368;49.350;8.152;2023-03-14T04:06:40;981.3;;;13.31;57.76
54459;BME280;40368;49.350;8.152;2023-03-14T04:07:39;981.2;;;13.3;57.58
54459;BME280;40368;49.350;8.152;2023-03-14T04:08:39;981.2;;;13.3;57.63
54459;BME280;40368;49.350;8.152;2023-03-14T04:09:39;981.2;;;13.28;57.47
54459;BME280;40368;49.350;8.152;2023-03-14T04:10:39;981.2;;;13.25;57.52
54459;BME280;40368;49.350;8.152;2023-03-14T04:11:39;981.2;;;13.25;57.84
54459;BME280;40368;49.350;8.152;2023-03-14T04:12:39;981.2;;;13.29;57.93
54459;BME280;40368;49.350;8.152;2023-03-14T04:13:39;981.2;;;13.34;57.79
54459;BME280;40368;49.350;8.152;2023-03-14T04:14:39;981.2;;;13.36;57.78
54459;BME280;40368;49.350;8.152;2023-03-14T04:15:39;981.4;;;13.35;57.58
54459;BME280;40368;49.350;8.152;2023-03-14T04:16:40;981.2;;;13.35;57.59
54459;BME280;40368;49.350;8.152;2023-03-14T04:17:39;981.4;;;13.31;57.53
54459;BME280;40368;49.350;8.152;2023-03-14T04:18:39;981.1;;;13.3;57.58
54459;BME280;40368;49.350;8.152;2023-03-14T04:19:39;981.2;;;13.29;57.77
54459;BME280;40368;49.350;8.152;2023-03-14T04:20:39;981;;;13.31;58.09
54459;BME280;40368;49.350;8.152;2023-03-14T04:21:39;981.1;;;13.34;57.88
54459;BME280;40368;49.350;8.152;2023-03-14T04:22:39;981;;;13.36;57.61
54459;BME280;40368;49.350;8.152;2023-03-14T04:23:39;981.1;;;13.35;57.7
54459;BME280;40368;49.350;8.152;2023-03-14T04:24:39;981.1;;;13.35;57.81
54459;BME280;40368;49.350;8.152;2023-03-14T04:25:39;981;;;13.34;57.66
54459;BME280;40368;49.350;8.152;2023-03-14T04:26:39;981.1;;;13.33;57.71
54459;BME280;40368;49.350;8.152;2023-03-14T04:27:39;981;;;13.31;57.75
54459;BME280;40368;49.350;8.152;2023-03-14T04:28:39;981.1;;;13.31;57.75
54459;BME280;40368;49.350;8.152;2023-03-14T04:29:39;980.9;;;13.32;57.77
54459;BME280;40368;49.350;8.152;2023-03-14T04:30:39;980.9;;;13.3;57.55
54459;BME280;40368;49.350;8.152;2023-03-14T04:31:39;980.9;;;13.28;57.65
54459;BME280;40368;49.350;8.152;2023-03-14T04:32:39;980.8;;;13.24;57.63
54459;BME280;40368;49.350;8.152;2023-03-14T04:33:39;980.8;;;13.24;57.7
54459;BME280;40368;49.350;8.152;2023-03-14T04:34:39;980.8;;;13.24;57.95
54459;BME280;40368;49.350;8.152;2023-03-14T04:35:39;980.8;;;13.25;57.89
54459;BME280;40368;49.350;8.152;2023-03-14T04:36:39;980.8;;;13.27;58.27
54459;BME280;40368;49.350;8.152;2023-03-14T04:37:39;980.8;;;13.28;57.9
54459;BME280;40368;49.350;8.152;2023-03-14T04:38:39;980.8;;;13.26;57.81
54459;BME280;40368;49.350;8.152;2023-03-14T04:39:39;980.8;;;13.23;57.6
54459;BME280;40368;49.350;8.152;2023-03-14T04:40:39;980.7;;;13.22;58.03
54459;BME280;40368;49.350;8.152;2023-03-14T04:41:39;980.6;;;13.22;57.85
54459;BME280;40368;49.350;8.152;2023-03-14T04:42:39;980.7;;;13.21;58.06
54459;BME280;40368;49.350;8.152;2023-03-14T04:43:39;980.6;;;13.19;58.15
54459;BME280;40368;49.350;8.152;2023-03-14T04:44:39;980.7;;;13.19;58.32
54459;BME280;40368;49.350;8.152;2023-03-14T04:45:41;980.6;;;13.19;58.35
54459;BME280;40368;49.350;8.152;2023-03-14T04:46:39;980.7;;;13.19;58.25
54459;BME280;40368;49.350;8.152;2023-03-14T04:47:39;980.7;;;13.19;58.06
54459;BME280;40368;49.350;8.152;2023-03-14T04:48:39;980.8;;;13.15;58.35
54459;BME280;40368;49.350;8.152;2023-03-14T04:49:39;980.7;;;13.14;58.42
54459;BME280;40368;49.350;8.152;2023-03-14T04:50:39;980.8;;;13.11;58.34
54459;BME280;40368;49.350;8.152;2023-03-14T04:51:39;980.8;;;13.12;58.53
54459;BME280;40368;49.350;8.152;2023-03-14T04:52:39;980.8;;;13.15;58.7
54459;BME280;40368;49.350;8.152;2023-03-14T04:53:40;980.7;;;13.14;58.6
54459;BME280;40368;49.350;8.152;2023-03-14T04:54:39;980.6;;;13.17;58.5
54459;BME280;40368;49.350;8.152;2023-03-14T04:55:39;980.8;;;13.17;58.64
54459;BME280;40368;49.350;8.152;2023-03-14T04:56:39;980.8;;;13.14;58.57
54459;BME280;40368;49.350;8.152;2023-03-14T04:57:39;980.6;;;13.12;58.53
54459;BME280;40368;49.350;8.152;2023-03-14T04:58:39;980.6;;;13.12;58.66
54459;BME280;40368;49.350;8.152;2023-03-14T04:59:39;980.5;;;13.12;58.71
54459;BME280;40368;49.350;8.152;2023-03-14T05:00:39;980.7;;;13.13;58.81
54459;BME280;40368;49.350;8.152;2023-03-14T05:01:39;980.6;;;13.16;58.56
54459;BME280;40368;49.350;8.152;2023-03-14T05:02:39;980.8;;;13.15;58.63
54459;BME280;40368;49.350;8.152;2023-03-14T05:03:39;980.6;;;13.11;58.6
54459;BME280;40368;49.350;8.152;2023-03-14T05:04:40;980.6;;;13.1;58.61
54459;BME280;40368;49.350;8.152;2023-03-14T05:05:39;980.7;;;13.07;58.62
54459;BME280;40368;49.350;8.152;2023-03-14T05:06:39;980.6;;;13.08;58.76
54459;BME280;40368;49.350;8.152;2023-03-14T05:07:39;980.6;;;13.09;59.01
54459;BME280;40368;49.350;8.152;2023-03-14T05:08:39;980.4;;;13.09;58.72
54459;BME280;40368;49.350;8.152;2023-03-14T05:09:39;980.3;;;13.08;58.65
54459;BME280;40368;49.350;8.152;2023-03-14T05:10:39;980.4;;;13.08;58.87
54459;BME280;40368;49.350;8.152;2023-03-14T05:11:39;980.5;;;13.05;58.85
54459;BME280;40368;49.350;8.152;2023-03-14T05:12:39;980.2;;;13.04;58.77
54459;BME280;40368;49.350;8.152;2023-03-14T05:13:39;980.4;;;13;58.79
54459;BME280;40368;49.350;8.152;2023-03-14T05:14:39;980.5;;;13.02;58.93
54459;BME280;40368;49.350;8.152;2023-03-14T05:15:39;980.3;;;13;58.96
54459;BME280;40368;49.350;8.152;2023-03-14T05:16:39;980.5;;;13.01;58.93
54459;BME280;40368;49.350;8.152;2023-03-14T05:17:39;980.5;;;12.99;58.91
54459;BME280;40368;49.350;8.152;2023-03-14T05:18:39;980.3;;;12.98;58.92
54459;BME280;40368;49.350;8.152;2023-03-14T05:19:39;980.4;;;13;59.1
54459;BME280;40368;49.350;8.152;2023-03-14T05:20:39;980.3;;;13.02;59.04
54459;BME280;40368;49.350;8.152;2023-03-14T05:21:39;980.3;;;13.02;59.07
54459;BME280;40368;49.350;8.152;2023-03-14T05:22:39;980.4;;;13.02;59.2
54459;BME280;40368;49.350;8.152;2023-03-14T05:23:40;980.3;;;13;59.17
54459;BME280;40368;49.350;8.152;2023-03-14T05:24:39;980.3;;;13.02;59.24
54459;BME280;40368;49.350;8.152;2023-03-14T05:25:39;980.4;;;12.99;58.82
54459;BME280;40368;49.350;8.152;2023-03-14T05:26:39;980.3;;;12.98;58.96
54459;BME280;40368;49.350;8.152;2023-03-14T05:27:39;980.5;;;12.97;59.13
54459;BME280;40368;49.350;8.152;2023-03-14T05:28:39;980.3;;;12.99;59.21
54459;BME280;40368;49.350;8.152;2023-03-14T05:29:39;980.4;;;12.97;58.54
54459;BME280;40368;49.350;8.152;2023-03-14T05:30:39;980.4;;;12.98;59.03
54459;BME280;40368;49.350;8.152;2023-03-14T05:31:39;980.2;;;12.97;58.95
54459;BME280;40368;49.350;8.152;2023-03-14T05:32:39;980.3;;;12.95;58.87
54459;BME280;40368;49.350;8.152;2023-03-14T05:33:39;980.4;;;12.94;58.65